createdAt,value
2022-11-07T00:00:39.766Z,77.33
2022-11-07T00:03:44.714Z,77.23
2022-11-07T00:06:50.635Z,76.04
2022-11-07T00:09:56.794Z,75.32
2022-11-07T00:13:01.866Z,75.27
2022-11-07T00:16:08.484Z,75.63
2022-11-07T00:19:14.987Z,75.73
2022-11-07T00:22:21.431Z,76.42
2022-11-07T00:25:26.807Z,75.73
2022-11-07T00:28:32.522Z,75.72
2022-11-07T00:31:40.056Z,76.39
2022-11-07T00:34:49.193Z,77.32
2022-11-07T00:37:55.196Z,76.99
2022-11-07T00:41:12.249Z,76.33
2022-11-07T00:44:20.282Z,76.52
2022-11-07T00:47:25.767Z,76.66
2022-11-07T00:50:32.333Z,76.81
2022-11-07T00:53:39.079Z,76.62
2022-11-07T00:56:46.179Z,76.41
2022-11-07T00:59:53.195Z,75.96
2022-11-07T01:03:17.326Z,76.46
2022-11-07T01:06:23.672Z,76.88
2022-11-07T01:09:34.877Z,76.67
2022-11-07T01:12:40.322Z,76.36
2022-11-07T01:15:49.412Z,75.96
2022-11-07T01:18:55.708Z,75.73
2022-11-07T01:22:02.878Z,75.32
2022-11-07T01:25:08.932Z,75.06
2022-11-07T01:28:14.953Z,75.01
2022-11-07T01:31:24.693Z,74.49
2022-11-07T01:34:30.568Z,75.23
2022-11-07T01:37:37.574Z,75.54
2022-11-07T01:40:46.422Z,75.88
2022-11-07T01:44:02.509Z,75.75
2022-11-07T01:47:13.201Z,75.91
2022-11-07T01:50:19.734Z,75.19
2022-11-07T01:53:25.341Z,75.54
2022-11-07T01:56:31.300Z,75.25
2022-11-07T01:59:38.078Z,75.22
2022-11-07T02:02:43.981Z,74.83
2022-11-07T02:05:57.929Z,74.54
2022-11-07T02:09:05.235Z,73.99
2022-11-07T02:12:11.620Z,74.07
2022-11-07T02:15:18.305Z,73.98
2022-11-07T02:18:23.667Z,73.63
2022-11-07T02:21:58.406Z,73.78
2022-11-07T02:25:07.281Z,73.10
2022-11-07T02:28:14.450Z,71.85
2022-11-07T02:31:20.968Z,71.60
2022-11-07T02:34:19.927Z,71.92
2022-11-07T02:37:42.766Z,71.76
2022-11-07T02:40:49.546Z,71.44
2022-11-07T02:43:59.425Z,71.33
2022-11-07T02:47:05.391Z,71.56
2022-11-07T02:50:11.005Z,71.69
2022-11-07T02:53:17.815Z,71.85
2022-11-07T02:56:22.839Z,71.76
2022-11-07T02:59:28.353Z,72.03
2022-11-07T03:02:33.324Z,71.87
2022-11-07T03:05:41.133Z,71.94
2022-11-07T03:08:46.787Z,74.07
2022-11-07T03:11:53.346Z,73.68
2022-11-07T03:15:00.308Z,73.44
2022-11-07T03:18:07.454Z,74.99
2022-11-07T03:21:14.915Z,75.51
2022-11-07T03:24:20.566Z,75.87
2022-11-07T03:27:27.245Z,76.52
2022-11-07T03:30:33.354Z,77.30
2022-11-07T03:33:39.483Z,76.76
2022-11-07T03:36:45.986Z,77.03
2022-11-07T03:39:52.067Z,77.08
2022-11-07T03:43:00.815Z,76.98
2022-11-07T03:46:06.667Z,76.76
2022-11-07T03:49:12.170Z,77.12
2022-11-07T03:52:17.408Z,77.50
2022-11-07T03:55:25.545Z,77.39
2022-11-07T03:58:32.890Z,77.22
2022-11-07T04:01:40.152Z,77.11
2022-11-07T04:04:45.988Z,76.51
2022-11-07T04:07:51.966Z,76.07
2022-11-07T04:10:58.038Z,76.90
2022-11-07T04:14:21.712Z,77.20
2022-11-07T04:17:28.378Z,77.36
2022-11-07T04:20:35.147Z,77.09
2022-11-07T04:23:41.999Z,77.16
2022-11-07T04:27:05.309Z,76.70
2022-11-07T04:30:26.904Z,76.40
2022-11-07T04:33:32.717Z,76.15
2022-11-07T04:36:37.758Z,76.48
2022-11-07T04:39:42.791Z,76.12
2022-11-07T04:42:51.022Z,75.40
2022-11-07T04:45:58.190Z,76.20
2022-11-07T04:49:05.395Z,76.48
2022-11-07T04:52:13.259Z,76.79
2022-11-07T04:55:20.187Z,76.85
2022-11-07T04:58:27.334Z,76.71
2022-11-07T05:01:34.573Z,76.62
2022-11-07T05:04:33.587Z,76.60
2022-11-07T05:07:27.186Z,77.03
2022-11-07T05:10:39.932Z,76.63
2022-11-07T05:13:46.328Z,76.34
2022-11-07T05:16:53.104Z,76.30
2022-11-07T05:20:03.380Z,75.77
2022-11-07T05:23:20.092Z,76.52
2022-11-07T05:26:25.696Z,77.33
2022-11-07T05:29:31.341Z,77.90
2022-11-07T05:32:37.268Z,77.45
2022-11-07T05:35:45.205Z,77.44
2022-11-07T05:38:51.911Z,77.39
2022-11-07T05:41:51.871Z,77.18
2022-11-07T05:44:44.751Z,77.14
2022-11-07T05:47:51.126Z,77.67
2022-11-07T05:50:58.369Z,77.88
2022-11-07T05:53:57.765Z,76.51
2022-11-07T05:57:06.647Z,76.68
2022-11-07T06:00:12.964Z,76.33
2022-11-07T06:03:18.757Z,76.23
2022-11-07T06:06:24.748Z,76.06
2022-11-07T06:09:31.219Z,75.93
2022-11-07T06:12:38.398Z,75.81
2022-11-07T06:15:45.733Z,75.96
2022-11-07T06:18:51.777Z,75.72
2022-11-07T06:22:00.155Z,75.36
2022-11-07T06:25:07.758Z,75.49
2022-11-07T06:28:24.232Z,75.79
2022-11-07T06:31:31.260Z,75.96
2022-11-07T06:34:37.677Z,75.69
2022-11-07T06:37:42.726Z,75.00
2022-11-07T06:40:49.169Z,74.70
2022-11-07T06:43:50.430Z,74.91
2022-11-07T06:46:56.935Z,74.69
2022-11-07T06:50:03.234Z,74.56
2022-11-07T06:53:09.048Z,74.28
2022-11-07T06:56:19.876Z,73.73
2022-11-07T06:59:25.895Z,73.72
2022-11-07T07:02:56.925Z,73.72
2022-11-07T07:05:38.473Z,73.35
2022-11-07T07:08:44.617Z,73.59
2022-11-07T07:11:53.804Z,73.57
2022-11-07T07:15:00.159Z,73.07
2022-11-07T07:18:05.442Z,72.90
2022-11-07T07:21:24.246Z,72.32
2022-11-07T07:24:30.425Z,71.64
2022-11-07T07:27:37.068Z,72.67
2022-11-07T07:30:50.349Z,73.21
2022-11-07T07:33:52.031Z,73.62
2022-11-07T07:36:59.594Z,73.38
2022-11-07T07:40:05.959Z,73.21
2022-11-07T07:43:12.078Z,72.29
2022-11-07T07:46:20.066Z,72.32
2022-11-07T07:49:27.772Z,71.78
2022-11-07T07:52:34.483Z,71.82
2022-11-07T07:55:40.331Z,71.65
2022-11-07T07:58:46.130Z,71.54
2022-11-07T08:01:56.937Z,71.58
2022-11-07T08:05:00.364Z,71.65
2022-11-07T08:08:07.832Z,71.36
2022-11-07T08:11:20.633Z,70.85
2022-11-07T08:14:26.105Z,70.12
2022-11-07T08:17:32.544Z,70.16
2022-11-07T08:20:37.736Z,70.48
2022-11-07T08:23:45.009Z,70.53
2022-11-07T08:26:54.313Z,70.06
2022-11-07T08:30:00.908Z,70.56
2022-11-07T08:33:09.765Z,69.82
2022-11-07T08:36:15.728Z,70.01
2022-11-07T08:39:21.196Z,69.62
2022-11-07T08:42:20.855Z,69.00
2022-11-07T08:45:27.499Z,70.06
2022-11-07T08:48:33.241Z,68.99
2022-11-07T08:51:40.778Z,70.45
2022-11-07T08:54:46.381Z,70.29
2022-11-07T08:57:51.716Z,70.28
2022-11-07T09:00:57.993Z,70.16
2022-11-07T09:04:15.928Z,70.45
2022-11-07T09:07:22.955Z,69.75
2022-11-07T09:10:28.336Z,69.04
2022-11-07T09:13:34.823Z,69.18
2022-11-07T09:16:41.259Z,68.56
2022-11-07T09:19:46.407Z,67.52
2022-11-07T09:22:53.753Z,68.18
2022-11-07T09:26:00.319Z,68.82
2022-11-07T09:29:07.496Z,68.70
2022-11-07T09:32:42.908Z,68.13
2022-11-07T09:35:23.463Z,68.49
2022-11-07T09:38:22.325Z,68.50
2022-11-07T09:41:52.229Z,68.30
2022-11-07T09:45:16.310Z,67.53
2022-11-07T09:48:33.684Z,66.71
2022-11-07T09:51:50.087Z,66.95
2022-11-07T09:55:02.492Z,67.65
2022-11-07T09:58:16.064Z,68.16
2022-11-07T10:01:32.432Z,68.55
2022-11-07T10:04:38.291Z,68.61
2022-11-07T10:08:00.131Z,68.60
2022-11-07T10:11:13.123Z,67.54
2022-11-07T10:14:54.181Z,67.18
2022-11-07T10:18:12.877Z,67.44
2022-11-07T10:21:38.702Z,67.69
2022-11-07T10:24:53.361Z,68.42
2022-11-07T10:28:05.072Z,67.40
2022-11-07T10:31:12.503Z,67.30
2022-11-07T10:34:23.255Z,66.68
2022-11-07T10:37:21.433Z,67.34
2022-11-07T10:40:35.012Z,67.59
2022-11-07T10:43:57.029Z,68.05
2022-11-07T10:47:04.498Z,68.57
2022-11-07T10:50:16.261Z,68.27
2022-11-07T10:53:28.111Z,67.95
2022-11-07T10:56:34.322Z,68.08
2022-11-07T10:59:44.935Z,68.72
2022-11-07T11:03:06.345Z,69.66
2022-11-07T11:06:13.669Z,69.03
2022-11-07T11:09:29.189Z,69.34
2022-11-07T11:12:46.819Z,68.92
2022-11-07T11:16:05.573Z,68.31
2022-11-07T11:19:09.849Z,68.09
2022-11-07T11:22:14.752Z,67.37
2022-11-07T11:25:32.554Z,67.97
2022-11-07T11:28:47.378Z,68.18
2022-11-07T11:32:04.699Z,68.95
2022-11-07T11:35:20.522Z,69.09
2022-11-07T11:38:49.621Z,68.53
2022-11-07T11:42:12.284Z,67.70
2022-11-07T11:45:42.982Z,66.49
2022-11-07T11:49:03.836Z,66.92
2022-11-07T11:52:17.217Z,67.20
2022-11-07T11:55:31.670Z,65.87
2022-11-07T11:58:51.837Z,65.27
2022-11-07T12:02:43.705Z,65.03
2022-11-07T12:06:24.104Z,66.69
2022-11-07T12:09:47.110Z,67.08
2022-11-07T12:13:16.843Z,67.02
2022-11-07T12:16:48.637Z,66.66
2022-11-07T12:20:32.835Z,66.60
2022-11-07T12:23:56.388Z,66.93
2022-11-07T12:27:35.739Z,66.40
2022-11-07T12:31:24.598Z,66.39
2022-11-07T12:34:58.269Z,66.24
2022-11-07T12:38:28.544Z,66.29
2022-11-07T12:41:54.437Z,67.60
2022-11-07T12:45:02.757Z,67.22
2022-11-07T12:48:00.107Z,66.26
2022-11-07T12:51:03.073Z,65.69
2022-11-07T12:54:16.244Z,66.29
2022-11-07T12:57:25.400Z,66.83
2022-11-07T13:00:43.579Z,66.57
2022-11-07T13:04:16.220Z,65.90
2022-11-07T13:07:31.548Z,65.30
2022-11-07T13:11:17.800Z,64.37
2022-11-07T13:14:44.377Z,64.61
2022-11-07T13:17:59.493Z,64.54
2022-11-07T13:21:19.996Z,64.72
2022-11-07T13:24:37.332Z,64.59
2022-11-07T13:27:48.779Z,65.51
2022-11-07T13:30:55.071Z,65.67
2022-11-07T13:33:59.707Z,65.60
2022-11-07T13:37:05.451Z,65.67
2022-11-07T13:40:30.289Z,64.97
2022-11-07T13:43:56.564Z,65.35
2022-11-07T13:47:10.672Z,65.65
2022-11-07T13:50:27.200Z,66.67
2022-11-07T13:53:56.178Z,66.65
2022-11-07T13:57:12.287Z,66.65
2022-11-07T14:00:27.317Z,66.37
2022-11-07T14:03:44.228Z,66.81
2022-11-07T14:06:50.219Z,67.11
2022-11-07T14:09:55.599Z,66.95
2022-11-07T14:13:01.661Z,67.12
2022-11-07T14:16:13.995Z,68.03
2022-11-07T14:19:23.166Z,68.23
2022-11-07T14:22:40.074Z,68.12
2022-11-07T14:25:49.262Z,68.16
2022-11-07T14:28:55.006Z,68.47
2022-11-07T14:32:01.143Z,68.29
2022-11-07T14:35:09.806Z,68.92
2022-11-07T14:38:26.635Z,69.29
2022-11-07T14:41:32.348Z,70.01
2022-11-07T14:44:54.942Z,69.97
2022-11-07T14:48:00.590Z,69.74
2022-11-07T14:51:06.612Z,69.96
2022-11-07T14:54:23.263Z,70.20
2022-11-07T14:57:29.024Z,69.96
2022-11-07T15:00:29.933Z,70.19
2022-11-07T15:03:25.303Z,70.45
2022-11-07T15:06:34.534Z,70.59
2022-11-07T15:09:48.747Z,71.43
2022-11-07T15:13:06.859Z,71.61
2022-11-07T15:16:29.172Z,72.06
2022-11-07T15:19:38.190Z,72.17
2022-11-07T15:22:48.541Z,71.77
2022-11-07T15:25:58.017Z,72.84
2022-11-07T15:29:08.165Z,73.09
2022-11-07T15:32:18.800Z,72.70
2022-11-07T15:35:44.153Z,73.06
2022-11-07T15:38:40.294Z,73.30
2022-11-07T15:41:46.238Z,74.12
2022-11-07T15:44:52.752Z,74.54
2022-11-07T15:47:58.631Z,74.13
2022-11-07T15:51:04.932Z,74.91
2022-11-07T15:54:04.637Z,75.54
2022-11-07T15:57:07.896Z,75.51
2022-11-07T15:59:54.280Z,75.88
2022-11-07T16:02:50.693Z,75.95
2022-11-07T16:05:43.510Z,75.11
2022-11-07T16:08:50.140Z,76.04
2022-11-07T16:11:57.127Z,76.84
2022-11-07T16:15:03.783Z,76.50
2022-11-07T16:18:08.699Z,75.87
2022-11-07T16:21:15.029Z,75.35
2022-11-07T16:24:23.787Z,74.80
2022-11-07T16:27:31.931Z,75.04
2022-11-07T16:30:40.728Z,74.45
2022-11-07T16:33:46.393Z,74.03
2022-11-07T16:36:54.475Z,73.91
2022-11-07T16:40:01.281Z,73.46
2022-11-07T16:43:06.946Z,73.37
2022-11-07T16:46:13.650Z,73.32
2022-11-07T16:49:43.286Z,73.72
2022-11-07T16:52:48.353Z,74.10
2022-11-07T16:55:53.942Z,74.55
2022-11-07T16:59:01.015Z,74.38
2022-11-07T17:02:11.841Z,74.15
2022-11-07T17:05:14.097Z,74.34
2022-11-07T17:08:19.873Z,72.82
2022-11-07T17:11:29.389Z,73.19
2022-11-07T17:14:34.614Z,73.21
2022-11-07T17:17:41.731Z,73.11
2022-11-07T17:20:51.582Z,74.03
2022-11-07T17:23:55.014Z,73.43
2022-11-07T17:27:00.872Z,73.26
2022-11-07T17:30:08.678Z,73.07
2022-11-07T17:33:16.069Z,73.75
2022-11-07T17:36:40.007Z,74.18
2022-11-07T17:39:46.567Z,73.74
2022-11-07T17:42:53.740Z,73.59
2022-11-07T17:46:00.008Z,73.45
2022-11-07T17:49:08.672Z,72.71
2022-11-07T17:52:15.061Z,72.95
2022-11-07T17:55:21.416Z,73.18
2022-11-07T17:58:27.061Z,73.17
2022-11-07T18:01:36.358Z,73.65
2022-11-07T18:04:41.314Z,73.36
2022-11-07T18:07:48.425Z,73.45
2022-11-07T18:10:56.633Z,73.71
2022-11-07T18:14:07.403Z,73.69
2022-11-07T18:17:11.008Z,73.56
2022-11-07T18:20:19.254Z,73.67
2022-11-07T18:23:24.679Z,73.37
2022-11-07T18:26:38.071Z,74.05
2022-11-07T18:29:43.796Z,74.12
2022-11-07T18:32:49.117Z,74.22
2022-11-07T18:35:56.097Z,74.11
2022-11-07T18:39:02.392Z,74.12
2022-11-07T18:42:08.891Z,74.19
2022-11-07T18:45:16.581Z,74.43
2022-11-07T18:48:22.860Z,74.31
2022-11-07T18:51:31.268Z,75.09
2022-11-07T18:54:37.262Z,75.55
2022-11-07T18:57:42.560Z,75.67
2022-11-07T19:00:48.671Z,76.10
2022-11-07T19:03:57.241Z,76.76
2022-11-07T19:07:07.040Z,76.99
2022-11-07T19:10:12.713Z,77.16
2022-11-07T19:13:18.606Z,77.58
2022-11-07T19:16:26.047Z,77.61
2022-11-07T19:19:32.357Z,77.42
2022-11-07T19:22:40.183Z,77.52
2022-11-07T19:25:46.654Z,77.46
2022-11-07T19:28:53.395Z,77.13
2022-11-07T19:32:00.946Z,77.11
2022-11-07T19:35:06.807Z,76.73
2022-11-07T19:38:12.852Z,76.62
2022-11-07T19:41:19.765Z,76.84
2022-11-07T19:44:25.501Z,76.87
2022-11-07T19:47:34.714Z,77.32
2022-11-07T19:50:41.371Z,77.27
2022-11-07T19:53:47.263Z,77.64
2022-11-07T19:56:57.659Z,77.19
2022-11-07T20:00:02.264Z,77.33
2022-11-07T20:03:08.509Z,77.51
2022-11-07T20:06:14.838Z,77.71
2022-11-07T20:09:22.079Z,77.82
2022-11-07T20:12:27.655Z,77.85
2022-11-07T20:15:33.184Z,77.80
2022-11-07T20:18:39.846Z,77.82
2022-11-07T20:21:46.129Z,78.18
2022-11-07T20:24:54.968Z,78.31
2022-11-07T20:28:00.509Z,78.20
2022-11-07T20:31:07.194Z,78.26
2022-11-07T20:34:15.921Z,78.51
2022-11-07T20:37:23.267Z,78.84
2022-11-07T20:40:29.856Z,78.83
2022-11-07T20:43:35.516Z,78.59
2022-11-07T20:46:41.992Z,78.39
2022-11-07T20:49:47.203Z,78.68
2022-11-07T20:52:57.467Z,78.68
2022-11-07T20:56:00.257Z,78.31
2022-11-07T20:59:07.189Z,78.57
2022-11-07T21:02:12.619Z,79.00
2022-11-07T21:05:19.420Z,78.79
2022-11-07T21:08:24.985Z,78.89
2022-11-07T21:11:32.264Z,78.74
2022-11-07T21:14:37.402Z,78.98
2022-11-07T21:17:43.597Z,79.25
2022-11-07T21:20:49.973Z,79.65
2022-11-07T21:23:57.647Z,79.54
2022-11-07T21:26:56.456Z,79.06
2022-11-07T21:29:49.235Z,78.80
2022-11-07T21:32:55.436Z,78.75
2022-11-07T21:36:01.988Z,78.84
2022-11-07T21:39:03.296Z,78.80
2022-11-07T21:41:56.409Z,78.94
2022-11-07T21:44:55.526Z,78.58
2022-11-07T21:48:02.523Z,78.34
2022-11-07T21:51:08.931Z,78.36
2022-11-07T21:54:14.990Z,78.39
2022-11-07T21:57:21.654Z,78.39
2022-11-07T22:00:33.114Z,78.33
2022-11-07T22:04:04.394Z,78.03
2022-11-07T22:06:43.487Z,78.00
2022-11-07T22:09:49.260Z,78.40
2022-11-07T22:12:57.229Z,79.20
2022-11-07T22:16:02.732Z,79.48
2022-11-07T22:19:12.720Z,79.55
2022-11-07T22:22:18.062Z,79.66
2022-11-07T22:25:25.365Z,79.88
2022-11-07T22:28:30.402Z,79.91
2022-11-07T22:31:44.142Z,79.96
2022-11-07T22:34:49.888Z,80.04
2022-11-07T22:37:56.382Z,80.23
2022-11-07T22:41:03.142Z,80.60
2022-11-07T22:44:09.250Z,80.65
2022-11-07T22:47:15.021Z,80.11
2022-11-07T22:50:21.055Z,81.85
2022-11-07T22:53:27.653Z,82.49
2022-11-07T22:56:34.571Z,82.58
2022-11-07T22:59:41.065Z,82.76
2022-11-07T23:02:47.102Z,81.93
2022-11-07T23:05:53.198Z,81.76
2022-11-07T23:08:58.431Z,82.55
2022-11-07T23:12:04.607Z,83.16
2022-11-07T23:15:11.646Z,83.46
2022-11-07T23:18:17.749Z,84.55
2022-11-07T23:21:23.738Z,85.10
2022-11-07T23:24:23.301Z,86.14
2022-11-07T23:27:30.834Z,86.45
2022-11-07T23:30:37.113Z,86.44
2022-11-07T23:33:43.963Z,86.32
2022-11-07T23:36:51.175Z,86.67
2022-11-07T23:39:57.453Z,86.54
2022-11-07T23:43:04.077Z,87.12
2022-11-07T23:46:30.108Z,87.01
2022-11-07T23:49:43.598Z,87.04
2022-11-07T23:52:49.307Z,86.90
2022-11-07T23:55:56.695Z,86.87
2022-11-07T23:59:20.339Z,86.30
